Time;durP1;ratioP1;P1;durP2;ratioP2;P2;SDS_P1;SDS_P2;PMS_P1;PMS_P2;Temp;Humidity;BMP_temperature;BMP_pressure;BME280_temperature;BME280_humidity;BME280_pressure;Samples;Min_cycle;Max_cycle;Signal;HPM_P1;HPM_P2
2023/05/01 00:01:53;;;;;;;4.68;2.80;;;;;;;-144.85;100.00;61331.59;5063964;28;33125;-64
2023/05/01 00:04:21;;;;;;;9.48;3.50;;;;;;;-144.85;100.00;61331.59;5068045;28;31963;-64
2023/05/01 00:06:48;;;;;;;6.85;3.22;;;;;;;-144.85;100.00;61331.59;5066142;28;32420;-64
2023/05/01 00:09:15;;;;;;;8.40;2.70;;;;;;;-144.85;100.00;61331.59;5059441;28;32557;-64
2023/05/01 00:11:43;;;;;;;5.88;2.90;;;;;;;-144.85;100.00;61331.59;5071948;28;32324;-64
2023/05/01 00:14:10;;;;;;;4.93;2.75;;;;;;;-144.85;100.00;61331.59;5067575;28;30511;-64
2023/05/01 00:16:37;;;;;;;5.32;2.85;;;;;;;-144.85;100.00;61331.59;5065279;28;31307;-64
2023/05/01 00:19:04;;;;;;;6.55;2.95;;;;;;;-144.85;100.00;61331.59;5062027;28;33485;-64
2023/05/01 00:21:31;;;;;;;6.78;2.97;;;;;;;-144.85;100.00;61331.59;5059304;28;33189;-64
2023/05/01 00:23:59;;;;;;;4.90;3.08;;;;;;;-144.85;100.00;61331.59;5060932;28;30643;-64
2023/05/01 00:26:29;;;;;;;7.20;2.85;;;;;;;-144.85;100.00;61331.59;5062424;28;31699;-64
2023/05/01 00:28:57;;;;;;;5.25;3.10;;;;;;;-144.85;100.00;61331.59;5071996;28;32902;-64
2023/05/01 00:31:24;;;;;;;8.05;2.88;;;;;;;-144.85;100.00;61331.59;5062499;28;32915;-64
2023/05/01 00:33:52;;;;;;;6.55;3.20;;;;;;;-144.85;100.00;61331.59;5073461;28;30483;-66
2023/05/01 00:36:19;;;;;;;4.55;3.30;;;;;;;-144.85;100.00;61331.59;5058886;28;31321;-64
2023/05/01 00:38:46;;;;;;;5.85;3.00;;;;;;;-144.85;100.00;61331.59;5058830;28;32327;-64
2023/05/01 00:41:13;;;;;;;6.18;3.15;;;;;;;-144.85;100.00;61331.59;5059394;28;31072;-64
2023/05/01 00:43:41;;;;;;;6.32;3.00;;;;;;;-144.85;100.00;61331.59;5061757;28;31985;-64
2023/05/01 00:46:09;;;;;;;6.95;3.30;;;;;;;-144.85;100.00;61331.59;5059347;28;32550;-64
2023/05/01 00:48:37;;;;;;;6.80;3.47;;;;;;;-144.85;100.00;61331.59;5054725;28;30897;-64
2023/05/01 00:51:06;;;;;;;6.68;3.25;;;;;;;-144.85;100.00;61331.59;5062408;28;31287;-64
2023/05/01 00:53:34;;;;;;;6.63;3.30;;;;;;;-144.85;100.00;61331.59;5059686;28;30650;-64
2023/05/01 00:56:03;;;;;;;9.90;3.42;;;;;;;-144.85;100.00;61331.59;5074080;28;31543;-64
2023/05/01 00:58:30;;;;;;;8.02;3.00;;;;;;;-144.85;100.00;61331.59;5061049;28;31039;-64
2023/05/01 01:00:57;;;;;;;5.40;3.40;;;;;;;-144.85;100.00;61331.59;5059201;28;33249;-64
2023/05/01 01:03:25;;;;;;;8.20;3.20;;;;;;;-144.85;100.00;61331.59;5079017;28;31693;-64
2023/05/01 01:06:03;;;;;;;7.50;3.30;;;;;;;-144.85;100.00;61331.59;5078283;28;31867;-65
2023/05/01 01:08:48;;;;;;;7.60;3.30;;;;;;;-144.85;100.00;61331.59;5080145;28;32528;-64
2023/05/01 01:11:51;;;;;;;6.27;3.33;;;;;;;-144.85;100.00;61331.59;5058412;28;32393;-64
2023/05/01 01:14:25;;;;;;;6.78;3.20;;;;;;;-144.85;100.00;61331.59;5061128;28;32598;-64
2023/05/01 01:17:10;;;;;;;6.10;3.20;;;;;;;-144.85;100.00;61331.59;5073740;28;30371;-64
2023/05/01 01:19:56;;;;;;;7.33;3.03;;;;;;;-144.85;100.00;61331.59;5058511;28;33335;-64
2023/05/01 01:22:26;;;;;;;6.55;3.10;;;;;;;-144.85;100.00;61331.59;5057664;28;32288;-64
2023/05/01 01:25:31;;;;;;;7.47;3.50;;;;;;;-144.85;100.00;61331.59;5058209;28;32671;-64
2023/05/01 01:28:40;;;;;;;7.65;3.28;;;;;;;-144.85;100.00;61331.59;5075870;28;30414;-65
2023/05/01 01:31:16;;;;;;;5.97;3.22;;;;;;;-144.85;100.00;61331.59;5017144;28;31370;-65
2023/05/01 01:33:50;;;;;;;7.45;3.50;;;;;;;-144.85;100.00;61331.59;5078453;28;30900;-67
2023/05/01 01:36:40;;;;;;;10.35;3.33;;;;;;;-144.85;100.00;61331.59;5060331;28;31507;-67
2023/05/01 01:39:22;;;;;;;4.90;3.17;;;;;;;-144.85;100.00;61331.59;5069407;28;30098;-67
2023/05/01 01:41:51;;;;;;;5.47;2.95;;;;;;;-144.85;100.00;61331.59;5078607;28;32408;-67
2023/05/01 01:44:29;;;;;;;6.28;3.10;;;;;;;-144.85;100.00;61331.59;5076750;28;30991;-68
2023/05/01 01:46:59;;;;;;;5.55;2.90;;;;;;;-144.85;100.00;61331.59;5062240;28;30852;-68
2023/05/01 01:49:30;;;;;;;5.85;3.10;;;;;;;-144.85;100.00;61331.59;5075593;28;30446;-67
2023/05/01 01:52:01;;;;;;;6.57;3.47;;;;;;;-144.85;100.00;61331.59;5069726;28;32343;-68
2023/05/01 01:54:36;;;;;;;7.93;3.30;;;;;;;-144.85;100.00;61331.59;5076364;28;31146;-67
2023/05/01 01:57:07;;;;;;;6.65;3.40;;;;;;;-144.85;100.00;61331.59;5077524;28;31696;-67
2023/05/01 01:59:34;;;;;;;7.13;3.55;;;;;;;-144.85;100.00;61331.59;5075859;28;31422;-67
2023/05/01 02:02:04;;;;;;;7.38;3.50;;;;;;;-144.85;100.00;61331.59;5057666;28;31450;-68
2023/05/01 02:04:32;;;;;;;6.95;3.55;;;;;;;-144.85;100.00;61331.59;5067033;28;32075;-68
2023/05/01 02:07:00;;;;;;;8.77;3.58;;;;;;;-144.85;100.00;61331.59;5070575;28;30771;-67
2023/05/01 02:09:30;;;;;;;4.72;3.28;;;;;;;-144.85;100.00;61331.59;5068990;28;32941;-67
2023/05/01 02:11:58;;;;;;;5.30;3.55;;;;;;;-144.85;100.00;61331.59;5071157;28;31386;-67
2023/05/01 02:14:26;;;;;;;5.85;3.05;;;;;;;-144.85;100.00;61331.59;5067217;28;30898;-67
2023/05/01 02:16:55;;;;;;;8.60;3.60;;;;;;;-144.85;100.00;61331.59;5073996;28;33073;-67
2023/05/01 02:19:23;;;;;;;6.53;3.83;;;;;;;-144.85;100.00;61331.59;5059862;28;31326;-67
2023/05/01 02:21:54;;;;;;;11.52;3.80;;;;;;;-144.85;100.00;61331.59;5059135;28;31261;-67
2023/05/01 02:24:23;;;;;;;6.95;4.00;;;;;;;-144.85;100.00;61331.59;5078565;28;31224;-67
2023/05/01 02:26:57;;;;;;;6.75;4.03;;;;;;;-144.85;100.00;61331.59;5078136;28;31678;-67
2023/05/01 02:29:25;;;;;;;7.07;4.00;;;;;;;-144.85;100.00;61331.59;5065770;28;31432;-67
2023/05/01 02:31:54;;;;;;;6.70;3.80;;;;;;;-144.85;100.00;61331.59;5089633;28;32344;-67
2023/05/01 02:34:21;;;;;;;7.18;3.78;;;;;;;-144.85;100.00;61331.59;5068441;28;33210;-68
2023/05/01 02:36:48;;;;;;;8.70;3.63;;;;;;;-144.85;100.00;61331.59;5064518;28;31866;-68
2023/05/01 02:39:16;;;;;;;5.60;3.97;;;;;;;-144.85;100.00;61331.59;5062511;28;32585;-67
2023/05/01 02:41:44;;;;;;;8.80;3.72;;;;;;;-144.85;100.00;61331.59;5057827;28;33442;-67
2023/05/01 02:44:14;;;;;;;7.88;3.90;;;;;;;-144.85;100.00;61331.59;5058479;28;31030;-67
2023/05/01 02:46:46;;;;;;;8.45;4.05;;;;;;;-144.85;100.00;61331.59;5057435;28;33443;-67
2023/05/01 02:49:15;;;;;;;9.05;4.00;;;;;;;-144.85;100.00;61331.59;5056831;28;31781;-67
2023/05/01 02:51:45;;;;;;;11.30;4.20;;;;;;;-144.85;100.00;61331.59;5056039;28;33524;-67
2023/05/01 02:54:13;;;;;;;11.02;4.60;;;;;;;-144.85;100.00;61331.59;5076309;28;31426;-68
2023/05/01 02:56:41;;;;;;;7.53;3.90;;;;;;;-144.85;100.00;61331.59;5077549;28;31257;-67
2023/05/01 02:59:08;;;;;;;7.85;3.95;;;;;;;-144.85;100.00;61331.59;5077857;28;30164;-67
2023/05/01 03:01:35;;;;;;;13.80;4.07;;;;;;;-144.85;100.00;61331.59;5063861;28;31971;-67
2023/05/01 03:04:03;;;;;;;6.90;3.30;;;;;;;-144.85;100.00;61331.59;5062371;28;32298;-67
2023/05/01 03:06:30;;;;;;;6.68;3.95;;;;;;;-144.85;100.00;61331.59;5067162;28;31028;-67
2023/05/01 03:08:57;;;;;;;11.70;4.00;;;;;;;-144.85;100.00;61331.59;5071402;28;31851;-67
2023/05/01 03:11:25;;;;;;;7.32;4.15;;;;;;;-144.85;100.00;61331.59;5069018;28;33839;-67
2023/05/01 03:13:52;;;;;;;6.60;3.55;;;;;;;-144.85;100.00;61331.59;5070859;28;31034;-67
2023/05/01 03:16:19;;;;;;;8.23;3.63;;;;;;;-144.85;100.00;61331.59;5069226;28;31650;-68
2023/05/01 03:18:47;;;;;;;8.10;4.00;;;;;;;-144.85;100.00;61331.59;5058087;28;32519;-68
2023/05/01 03:21:16;;;;;;;7.38;4.10;;;;;;;-144.85;100.00;61331.59;5064395;28;32580;-68
2023/05/01 03:23:43;;;;;;;8.13;3.97;;;;;;;-144.85;100.00;61331.59;5074943;28;32053;-68
2023/05/01 03:26:11;;;;;;;9.52;4.25;;;;;;;-144.85;100.00;61331.59;5065865;28;32138;-68
2023/05/01 03:28:38;;;;;;;8.30;4.25;;;;;;;-144.85;100.00;61331.59;5072319;28;31400;-67
2023/05/01 03:31:06;;;;;;;13.02;4.13;;;;;;;-144.85;100.00;61331.59;5065892;28;31229;-68
2023/05/01 03:33:33;;;;;;;8.10;3.83;;;;;;;-144.85;100.00;61331.59;5060513;28;31041;-68
2023/05/01 03:36:03;;;;;;;6.75;3.90;;;;;;;-144.85;100.00;61331.59;5067292;28;32189;-68
2023/05/01 03:38:32;;;;;;;7.68;3.72;;;;;;;-144.85;100.00;61331.59;5074384;28;31320;-68
2023/05/01 03:41:08;;;;;;;9.18;3.97;;;;;;;-144.85;100.00;61331.59;5066548;28;32883;-68
2023/05/01 03:43:54;;;;;;;6.43;3.90;;;;;;;-144.85;100.00;61331.59;5059111;28;32533;-69
2023/05/01 03:46:47;;;;;;;7.78;4.07;;;;;;;-144.85;100.00;61331.59;5061487;28;32141;-68
2023/05/01 03:49:21;;;;;;;8.98;4.20;;;;;;;-144.85;100.00;61331.59;5065218;28;31635;-68
2023/05/01 03:51:48;;;;;;;7.53;4.07;;;;;;;-144.85;100.00;61331.59;5069633;28;31464;-68
2023/05/01 03:54:15;;;;;;;6.97;4.05;;;;;;;-144.85;100.00;61331.59;5057528;28;31049;-68
2023/05/01 03:56:57;;;;;;;6.03;4.15;;;;;;;-144.85;100.00;61331.59;5057599;28;30604;-67
2023/05/01 03:59:24;;;;;;;8.23;4.78;;;;;;;-144.85;100.00;61331.59;5070136;28;31520;-68
2023/05/01 04:01:52;;;;;;;7.88;4.35;;;;;;;-144.85;100.00;61331.59;5054984;28;32696;-68
2023/05/01 04:04:20;;;;;;;9.18;3.90;;;;;;;-144.85;100.00;61331.59;5056408;28;32526;-66
2023/05/01 04:06:54;;;;;;;8.23;4.10;;;;;;;-144.85;100.00;61331.59;5046716;28;31630;-66
2023/05/01 04:09:21;;;;;;;10.05;4.57;;;;;;;-144.85;100.00;61331.59;5062822;28;31629;-66
2023/05/01 04:11:48;;;;;;;8.85;4.38;;;;;;;-144.85;100.00;61331.59;5074179;28;31356;-67
2023/05/01 04:14:16;;;;;;;9.35;4.40;;;;;;;-144.85;100.00;61331.59;5065369;28;33311;-66
2023/05/01 04:16:44;;;;;;;9.55;4.28;;;;;;;-144.85;100.00;61331.59;5076504;28;30753;-66
2023/05/01 04:19:11;;;;;;;7.50;4.10;;;;;;;-144.85;100.00;61331.59;5077054;28;30610;-66
2023/05/01 04:21:42;;;;;;;7.78;4.20;;;;;;;-144.85;100.00;61331.59;5060177;28;32289;-65
2023/05/01 04:24:10;;;;;;;11.57;3.88;;;;;;;-144.85;100.00;61331.59;5058481;28;32248;-66
2023/05/01 04:26:38;;;;;;;7.57;4.13;;;;;;;-144.85;100.00;61331.59;5069759;28;30832;-66
2023/05/01 04:29:06;;;;;;;9.82;4.40;;;;;;;-144.85;100.00;61331.59;5057114;28;31506;-66
2023/05/01 04:31:33;;;;;;;8.18;4.38;;;;;;;-144.85;100.00;61331.59;5073100;28;32460;-66
2023/05/01 04:34:01;;;;;;;8.63;4.15;;;;;;;-144.85;100.00;61331.59;5066640;28;32245;-66
2023/05/01 04:36:28;;;;;;;8.85;4.35;;;;;;;-144.85;100.00;61331.59;5074799;28;30567;-65
2023/05/01 04:38:55;;;;;;;6.63;4.07;;;;;;;-144.85;100.00;61331.59;5079949;28;31059;-66
2023/05/01 04:41:22;;;;;;;8.25;4.13;;;;;;;-144.85;100.00;61331.59;5079587;28;32358;-65
2023/05/01 04:43:50;;;;;;;8.82;4.20;;;;;;;-144.85;100.00;61331.59;5080735;28;32296;-66
2023/05/01 04:46:18;;;;;;;8.32;4.05;;;;;;;-144.85;100.00;61331.59;5080562;28;30702;-66
2023/05/01 04:48:45;;;;;;;7.25;4.05;;;;;;;-144.85;100.00;61331.59;5059592;28;30380;-66
2023/05/01 04:51:12;;;;;;;10.35;3.83;;;;;;;-144.85;100.00;61331.59;5060125;28;31467;-67
2023/05/01 04:53:39;;;;;;;7.90;4.28;;;;;;;-144.85;100.00;61331.59;5079976;28;31293;-66
2023/05/01 04:56:16;;;;;;;11.32;4.38;;;;;;;-144.85;100.00;61331.59;5079427;28;30780;-66
2023/05/01 04:58:45;;;;;;;7.82;4.32;;;;;;;-144.85;100.00;61331.59;5063043;28;30489;-66
2023/05/01 05:01:17;;;;;;;11.18;4.35;;;;;;;-144.85;100.00;61331.59;5064131;28;30895;-67
2023/05/01 05:03:45;;;;;;;8.60;3.92;;;;;;;-144.85;100.00;61331.59;5078210;28;32072;-66
2023/05/01 05:06:16;;;;;;;8.73;4.18;;;;;;;-144.85;100.00;61331.59;5079540;28;31736;-66
2023/05/01 05:08:43;;;;;;;9.20;4.18;;;;;;;-144.85;100.00;61331.59;5075694;28;32501;-67
2023/05/01 05:11:11;;;;;;;8.38;3.75;;;;;;;-144.85;100.00;61331.59;5068611;28;32358;-66
2023/05/01 05:13:59;;;;;;;6.82;3.80;;;;;;;-144.85;100.00;61331.59;5079471;28;32175;-66
2023/05/01 05:16:27;;;;;;;7.95;4.13;;;;;;;-144.85;100.00;61331.59;5069718;28;31687;-66
2023/05/01 05:18:56;;;;;;;9.05;4.38;;;;;;;-144.85;100.00;61331.59;5060232;28;31457;-66
2023/05/01 05:21:26;;;;;;;14.98;5.07;;;;;;;-144.85;100.00;61331.59;5072300;28;31370;-65
2023/05/01 05:23:56;;;;;;;7.60;4.13;;;;;;;-144.85;100.00;61331.59;5079199;28;31132;-65
2023/05/01 05:26:25;;;;;;;12.98;4.80;;;;;;;-144.85;100.00;61331.59;5077762;28;31039;-66
2023/05/01 05:28:55;;;;;;;9.48;4.35;;;;;;;-144.85;100.00;61331.59;5067771;28;31463;-66
2023/05/01 05:31:22;;;;;;;9.90;4.53;;;;;;;-144.85;100.00;61331.59;5067601;28;32394;-66
2023/05/01 05:33:50;;;;;;;10.15;4.50;;;;;;;-144.85;100.00;61331.59;5077015;28;32434;-65
2023/05/01 05:36:17;;;;;;;7.70;4.63;;;;;;;-144.85;100.00;61331.59;5069055;28;30722;-68
2023/05/01 05:38:45;;;;;;;12.27;5.20;;;;;;;-144.85;100.00;61331.59;5063271;28;31531;-67
2023/05/01 05:41:16;;;;;;;8.93;4.47;;;;;;;-144.85;100.00;61331.59;5070008;28;32445;-65
2023/05/01 05:43:44;;;;;;;11.48;4.78;;;;;;;-144.85;100.00;61331.59;5075130;28;30922;-65
2023/05/01 05:46:11;;;;;;;10.35;5.20;;;;;;;-144.85;100.00;61331.59;5059368;28;32566;-65
2023/05/01 05:48:40;;;;;;;9.20;5.13;;;;;;;-144.85;100.00;61331.59;5073473;28;31704;-65
2023/05/01 05:51:08;;;;;;;8.98;4.97;;;;;;;-144.85;100.00;61331.59;5071009;28;31243;-65
2023/05/01 05:53:35;;;;;;;7.20;4.63;;;;;;;-144.85;100.00;61331.59;5074102;28;31098;-65
2023/05/01 05:56:03;;;;;;;9.98;4.70;;;;;;;-144.85;100.00;61331.59;5060376;28;30717;-65
2023/05/01 05:58:31;;;;;;;7.40;4.22;;;;;;;-144.85;100.00;61331.59;5055522;28;30555;-65
2023/05/01 06:00:58;;;;;;;11.27;5.22;;;;;;;-144.85;100.00;61331.59;5072002;28;31324;-65
2023/05/01 06:03:26;;;;;;;10.18;4.95;;;;;;;-144.85;100.00;61331.59;5071000;28;30935;-65
2023/05/01 06:05:57;;;;;;;9.43;5.05;;;;;;;-144.85;100.00;61331.59;5072326;28;30619;-65
2023/05/01 06:08:26;;;;;;;11.77;5.80;;;;;;;-144.85;100.00;61331.59;5065468;28;32673;-65
2023/05/01 06:10:53;;;;;;;14.27;5.45;;;;;;;-144.85;100.00;61331.59;5074684;28;31359;-65
2023/05/01 06:13:20;;;;;;;8.70;5.32;;;;;;;-144.85;100.00;61331.59;5074740;28;32060;-65
2023/05/01 06:15:48;;;;;;;11.73;5.30;;;;;;;-144.85;100.00;61331.59;5063312;28;31936;-65
2023/05/01 06:18:16;;;;;;;9.75;5.15;;;;;;;-144.85;100.00;61331.59;5070852;28;30493;-65
2023/05/01 06:20:44;;;;;;;10.52;5.40;;;;;;;-144.85;100.00;61331.59;5077547;28;31363;-65
2023/05/01 06:23:12;;;;;;;10.27;4.72;;;;;;;-144.85;100.00;61331.59;5077174;28;32055;-65
2023/05/01 06:25:55;;;;;;;10.38;5.20;;;;;;;-144.85;100.00;61331.59;5066808;28;30751;-65
2023/05/01 06:28:23;;;;;;;9.27;5.43;;;;;;;-144.85;100.00;61331.59;5061280;28;31667;-65
2023/05/01 06:30:50;;;;;;;10.20;5.07;;;;;;;-144.85;100.00;61331.59;5074850;28;31439;-66
2023/05/01 06:33:19;;;;;;;9.02;5.28;;;;;;;-144.85;100.00;61331.59;5069501;28;30988;-65
2023/05/01 06:35:58;;;;;;;9.43;4.60;;;;;;;-144.85;100.00;61331.59;5071380;28;31506;-65
2023/05/01 06:38:26;;;;;;;9.70;5.35;;;;;;;-144.85;100.00;61331.59;5072028;28;32868;-65
2023/05/01 06:40:53;;;;;;;9.15;5.72;;;;;;;-144.85;100.00;61331.59;5077593;28;31335;-65
2023/05/01 06:43:21;;;;;;;9.35;5.45;;;;;;;-144.85;100.00;61331.59;5077530;28;31733;-66
2023/05/01 06:45:48;;;;;;;9.75;4.85;;;;;;;-144.85;100.00;61331.59;5075094;28;30749;-65
2023/05/01 06:48:15;;;;;;;11.10;5.20;;;;;;;-144.85;100.00;61331.59;5077886;28;31482;-65
2023/05/01 06:50:43;;;;;;;9.35;5.30;;;;;;;-144.85;100.00;61331.59;5069577;28;33564;-66
2023/05/01 06:53:11;;;;;;;11.38;5.40;;;;;;;-144.85;100.00;61331.59;5060692;28;31340;-65
2023/05/01 06:55:38;;;;;;;10.35;5.18;;;;;;;-144.85;100.00;61331.59;5067665;28;32820;-65
2023/05/01 06:58:05;;;;;;;9.88;5.22;;;;;;;-144.85;100.00;61331.59;5061630;28;31396;-66
2023/05/01 07:00:48;;;;;;;10.60;5.05;;;;;;;-144.85;100.00;61331.59;5077103;28;32341;-66
2023/05/01 07:03:15;;;;;;;12.52;5.53;;;;;;;-144.85;100.00;61331.59;5064251;28;32926;-65
2023/05/01 07:05:43;;;;;;;8.60;5.00;;;;;;;-144.85;100.00;61331.59;5076434;28;31911;-66
2023/05/01 07:08:10;;;;;;;14.25;5.63;;;;;;;-144.85;100.00;61331.59;5061228;28;31605;-66
2023/05/01 07:10:37;;;;;;;9.10;5.38;;;;;;;-144.85;100.00;61331.59;5066464;28;32308;-65
2023/05/01 07:13:08;;;;;;;7.85;4.72;;;;;;;-144.85;100.00;61331.59;5062901;28;32062;-65
2023/05/01 07:15:36;;;;;;;9.50;5.07;;;;;;;-144.85;100.00;61331.59;5061517;28;32679;-65
2023/05/01 07:18:04;;;;;;;11.25;5.30;;;;;;;-144.85;100.00;61331.59;5060480;28;31891;-65
2023/05/01 07:20:33;;;;;;;9.93;4.93;;;;;;;-144.85;100.00;61331.59;5061841;28;31136;-65
2023/05/01 07:23:00;;;;;;;10.30;5.22;;;;;;;-144.85;100.00;61331.59;5073919;28;31954;-65
2023/05/01 07:25:28;;;;;;;13.23;4.95;;;;;;;-144.85;100.00;61331.59;5065466;28;32640;-66
2023/05/01 07:27:56;;;;;;;9.73;5.05;;;;;;;-144.85;100.00;61331.59;5058435;28;31679;-65
2023/05/01 07:30:23;;;;;;;10.05;5.63;;;;;;;-144.85;100.00;61331.59;5070501;28;31225;-65
2023/05/01 07:32:51;;;;;;;10.07;5.45;;;;;;;-144.85;100.00;61331.59;5060368;28;32194;-65
2023/05/01 07:35:19;;;;;;;10.30;5.43;;;;;;;-144.85;100.00;61331.59;5060525;28;31520;-65
2023/05/01 07:37:46;;;;;;;9.07;5.35;;;;;;;-144.85;100.00;61331.59;5061667;28;32645;-66
2023/05/01 07:40:13;;;;;;;11.25;5.10;;;;;;;-144.85;100.00;61331.59;5058500;28;32268;-65
2023/05/01 07:42:40;;;;;;;11.18;5.70;;;;;;;-144.85;100.00;61331.59;5065208;28;32061;-65
2023/05/01 07:45:08;;;;;;;7.68;5.00;;;;;;;-144.85;100.00;61331.59;5062661;28;31697;-65
2023/05/01 07:47:36;;;;;;;10.18;5.15;;;;;;;-144.85;100.00;61331.59;5077308;28;31408;-65
2023/05/01 07:50:03;;;;;;;8.15;5.18;;;;;;;-144.85;100.00;61331.59;5073500;28;32726;-66
2023/05/01 07:52:31;;;;;;;8.13;5.38;;;;;;;-144.85;100.00;61331.59;5061221;28;32119;-66
2023/05/01 07:54:58;;;;;;;8.75;5.47;;;;;;;-144.85;100.00;61331.59;5063308;28;32232;-66
2023/05/01 07:57:25;;;;;;;9.07;5.35;;;;;;;-144.85;100.00;61331.59;5058777;28;31962;-66
2023/05/01 07:59:55;;;;;;;12.00;5.57;;;;;;;-144.85;100.00;61331.59;5055678;28;32495;-65
2023/05/01 08:02:25;;;;;;;11.60;6.30;;;;;;;-144.85;100.00;61331.59;5068310;28;32455;-65
2023/05/01 08:04:53;;;;;;;8.65;5.70;;;;;;;-144.85;100.00;61331.59;5067736;28;31874;-65
2023/05/01 08:07:21;;;;;;;8.75;5.75;;;;;;;-144.85;100.00;61331.59;5077958;28;32625;-66
2023/05/01 08:09:48;;;;;;;11.65;5.82;;;;;;;-144.85;100.00;61331.59;5075831;28;33449;-66
2023/05/01 08:12:15;;;;;;;13.77;6.07;;;;;;;-144.85;100.00;61331.59;5062541;28;32142;-65
2023/05/01 08:14:45;;;;;;;13.27;6.22;;;;;;;-144.85;100.00;61331.59;5070675;28;32016;-63
2023/05/01 08:17:45;;;;;;;10.63;5.90;;;;;;;-144.85;100.00;61331.59;5070821;28;32385;-66
2023/05/01 08:20:12;;;;;;;8.68;5.68;;;;;;;-144.85;100.00;61331.59;5072325;28;33315;-63
2023/05/01 08:22:40;;;;;;;9.30;6.15;;;;;;;-144.85;100.00;61331.59;5071988;28;32486;-65
2023/05/01 08:25:09;;;;;;;13.43;6.63;;;;;;;-144.85;100.00;61331.59;5061774;28;31472;-65
2023/05/01 08:27:37;;;;;;;8.00;5.82;;;;;;;-144.85;100.00;61331.59;5058838;28;31043;-65
2023/05/01 08:30:05;;;;;;;9.60;6.18;;;;;;;-144.85;100.00;61331.59;5080639;28;31236;-65
2023/05/01 08:32:33;;;;;;;9.15;5.90;;;;;;;-144.85;100.00;61331.59;5072799;28;32546;-65
2023/05/01 08:35:00;;;;;;;8.85;6.50;;;;;;;-144.85;100.00;61331.59;5058964;28;32388;-65
2023/05/01 08:37:27;;;;;;;10.55;6.15;;;;;;;-144.85;100.00;61331.59;5073114;28;31277;-65
2023/05/01 08:39:54;;;;;;;10.48;6.32;;;;;;;-144.85;100.00;61331.59;5071831;28;33201;-66
2023/05/01 08:42:22;;;;;;;9.70;6.82;;;;;;;-144.85;100.00;61331.59;5065312;28;31737;-65
2023/05/01 08:44:53;;;;;;;9.63;5.97;;;;;;;-144.85;100.00;61331.59;5080793;28;32518;-65
2023/05/01 08:47:21;;;;;;;9.15;6.47;;;;;;;-144.85;100.00;61331.59;5069458;28;31979;-65
2023/05/01 08:49:51;;;;;;;9.18;6.05;;;;;;;-144.85;100.00;61331.59;5080179;27;32487;-65
2023/05/01 08:52:21;;;;;;;8.85;6.22;;;;;;;-144.85;100.00;61331.59;5068149;28;33200;-65
2023/05/01 08:54:50;;;;;;;9.27;6.18;;;;;;;-144.85;100.00;61331.59;5062306;28;31901;-65
2023/05/01 08:57:17;;;;;;;11.10;6.63;;;;;;;-144.85;100.00;61331.59;5060843;28;32107;-65
2023/05/01 08:59:47;;;;;;;11.27;6.00;;;;;;;-144.85;100.00;61331.59;5071684;28;32576;-65
2023/05/01 09:02:14;;;;;;;8.18;5.72;;;;;;;-144.85;100.00;61331.59;5057720;28;32030;-65
2023/05/01 09:04:42;;;;;;;9.15;5.50;;;;;;;-144.85;100.00;61331.59;5077949;28;31745;-65
2023/05/01 09:07:09;;;;;;;9.38;5.80;;;;;;;-144.85;100.00;61331.59;5077118;28;31336;-65
2023/05/01 09:09:36;;;;;;;8.93;6.13;;;;;;;-144.85;100.00;61331.59;5068412;28;32525;-65
2023/05/01 09:12:10;;;;;;;8.45;5.70;;;;;;;-144.85;100.00;61331.59;5078999;28;31170;-65
2023/05/01 09:14:37;;;;;;;9.18;5.72;;;;;;;-144.85;100.00;61331.59;5077532;28;31675;-65
2023/05/01 09:17:04;;;;;;;8.93;5.90;;;;;;;-144.85;100.00;61331.59;5059764;28;32074;-65
2023/05/01 09:19:32;;;;;;;10.90;5.85;;;;;;;-144.85;100.00;61331.59;5071009;28;33084;-65
2023/05/01 09:21:59;;;;;;;9.15;6.18;;;;;;;-144.85;100.00;61331.59;5091761;28;31997;-65
2023/05/01 09:24:26;;;;;;;9.70;6.15;;;;;;;-144.85;100.00;61331.59;5080370;28;31908;-65
2023/05/01 09:26:56;;;;;;;11.90;6.60;;;;;;;-144.85;100.00;61331.59;5064622;28;31476;-65
2023/05/01 09:29:43;;;;;;;9.60;6.30;;;;;;;-144.85;100.00;61331.59;5064263;28;32440;-65
2023/05/01 09:32:18;;;;;;;8.50;6.32;;;;;;;-144.85;100.00;61331.59;5068330;28;32159;-65
2023/05/01 09:34:48;;;;;;;8.65;6.30;;;;;;;-144.85;100.00;61331.59;5062492;28;32177;-65
2023/05/01 09:37:26;;;;;;;10.82;6.40;;;;;;;-144.85;100.00;61331.59;5060619;28;31763;-65
2023/05/01 09:40:05;;;;;;;10.93;6.60;;;;;;;-144.85;100.00;61331.59;5062021;28;32859;-65
2023/05/01 09:42:37;;;;;;;8.45;6.20;;;;;;;-144.85;100.00;61331.59;5070842;28;32483;-65
2023/05/01 09:45:15;;;;;;;8.18;5.78;;;;;;;-144.85;100.00;61331.59;5072449;28;31912;-65
2023/05/01 09:47:45;;;;;;;10.23;6.50;;;;;;;-144.85;100.00;61331.59;5065777;28;31282;-65
2023/05/01 09:50:33;;;;;;;10.35;6.40;;;;;;;-144.85;100.00;61331.59;5063230;28;32268;-65
2023/05/01 09:53:03;;;;;;;10.18;6.55;;;;;;;-144.85;100.00;61331.59;5059888;28;32720;-65
2023/05/01 09:55:32;;;;;;;9.18;6.18;;;;;;;-144.85;100.00;61331.59;5065705;28;32707;-65
2023/05/01 09:57:59;;;;;;;8.48;6.05;;;;;;;-144.85;100.00;61331.59;5065026;28;31371;-65
2023/05/01 10:00:26;;;;;;;10.38;6.25;;;;;;;-144.85;100.00;61331.59;5064875;28;32456;-65
2023/05/01 10:02:54;;;;;;;8.07;6.32;;;;;;;-144.85;100.00;61331.59;5059567;28;33293;-65
2023/05/01 10:05:22;;;;;;;8.85;6.45;;;;;;;-144.85;100.00;61331.59;5058063;28;30468;-65
2023/05/01 10:07:59;;;;;;;10.63;6.32;;;;;;;-144.85;100.00;61331.59;5079170;28;31278;-65
2023/05/01 10:10:27;;;;;;;9.65;5.63;;;;;;;-144.85;100.00;61331.59;5075255;28;32843;-65
2023/05/01 10:12:54;;;;;;;8.85;5.85;;;;;;;-144.85;100.00;61331.59;5057453;28;32321;-66
2023/05/01 10:15:21;;;;;;;7.60;5.40;;;;;;;-144.85;100.00;61331.59;5058726;28;32503;-65
2023/05/01 10:17:53;;;;;;;6.88;4.85;;;;;;;-144.85;100.00;61331.59;5057293;28;31382;-65
2023/05/01 10:20:21;;;;;;;8.73;5.78;;;;;;;-144.85;100.00;61331.59;5070465;28;32543;-65
2023/05/01 10:22:48;;;;;;;10.15;5.93;;;;;;;-144.85;100.00;61331.59;5058022;28;32184;-65
2023/05/01 10:25:16;;;;;;;7.03;5.30;;;;;;;-144.85;100.00;61331.59;5056873;28;32889;-65
2023/05/01 10:27:44;;;;;;;8.07;6.20;;;;;;;-144.85;100.00;61331.59;5057988;28;31871;-65
2023/05/01 10:30:11;;;;;;;11.02;5.32;;;;;;;-144.85;100.00;61331.59;5077443;28;33539;-65
2023/05/01 10:32:40;;;;;;;8.63;6.13;;;;;;;-144.85;100.00;61331.59;5064382;28;32549;-66
2023/05/01 10:35:14;;;;;;;7.00;5.75;;;;;;;-144.85;100.00;61331.59;5070715;28;30639;-65
2023/05/01 10:37:56;;;;;;;8.30;6.47;;;;;;;-144.85;100.00;61331.59;5057219;28;33039;-65
2023/05/01 10:40:38;;;;;;;10.55;6.20;;;;;;;-144.85;100.00;61331.59;5066985;28;32483;-65
2023/05/01 10:43:26;;;;;;;8.38;6.13;;;;;;;-144.85;100.00;61331.59;5065045;28;32081;-65
2023/05/01 10:46:17;;;;;;;8.18;6.20;;;;;;;-144.85;100.00;61331.59;5066818;28;32056;-65
2023/05/01 10:48:45;;;;;;;11.60;5.88;;;;;;;-144.85;100.00;61331.59;5071268;28;31373;-65
2023/05/01 10:51:16;;;;;;;8.68;6.30;;;;;;;-144.85;100.00;61331.59;5057344;28;32035;-65
2023/05/01 10:53:45;;;;;;;8.85;5.93;;;;;;;-144.85;100.00;61331.59;5075376;28;32141;-65
2023/05/01 10:56:39;;;;;;;9.52;5.90;;;;;;;-144.85;100.00;61331.59;5071729;28;31825;-65
2023/05/01 10:59:07;;;;;;;8.18;5.80;;;;;;;-144.85;100.00;61331.59;5073775;28;31835;-65
2023/05/01 11:01:39;;;;;;;8.18;6.20;;;;;;;-144.85;100.00;61331.59;5055712;28;32612;-65
2023/05/01 11:04:26;;;;;;;8.40;6.03;;;;;;;-144.85;100.00;61331.59;5062911;28;33340;-65
2023/05/01 11:07:09;;;;;;;7.18;5.90;;;;;;;-144.85;100.00;61331.59;5078919;28;33261;-65
2023/05/01 11:09:53;;;;;;;8.77;6.13;;;;;;;-144.85;100.00;61331.59;5058157;28;31678;-65
2023/05/01 11:12:45;;;;;;;15.05;5.70;;;;;;;-144.85;100.00;61331.59;5055858;28;32683;-65
2023/05/01 11:15:27;;;;;;;8.48;5.85;;;;;;;-144.85;100.00;61331.59;5056711;28;32963;-65
2023/05/01 11:17:56;;;;;;;9.00;6.05;;;;;;;-144.85;100.00;61331.59;5067690;28;32790;-65
2023/05/01 11:20:23;;;;;;;9.50;6.53;;;;;;;-144.85;100.00;61331.59;5058510;28;31889;-65
2023/05/01 11:22:55;;;;;;;10.30;6.75;;;;;;;-144.85;100.00;61331.59;5073563;28;30251;-65